Impacts METAR Board
IDs:

KDEN - Denver Intl, CO, US

Updated at: 1000 UTC 09 Jul 2020
Potential Impact None Slight Moderate High
Time 08/22Z 08/23Z 09/00Z 09/01Z 09/02Z 09/03Z 09/04Z 09/05Z 09/06Z 09/07Z 09/08Z 09/09Z 09/10Z
Temp97 95 94 93 84 81 80 81 76 75 73 69 64
Dewpt28 27 25 27 28 38 39 31 35 41 40 40 38
Altim29.91 29.90 29.90 29.91 29.91 29.94 29.96 29.97 29.98 29.97 30.00 30.00 30.03
VIS10 10 10 10 10 10 10 10 10 10 10 10 10
CIG-- 200 160 160 160 200 160 150 180 190 160 -- --
CoverSCTBKNBKNBKNBKNBKNBKNBKNBKNBKNBKNSCTSCT
FltCatVFRVFRVFRVFRVFRVFRVFRVFRVFRVFRVFRVFRVFR
WX--------------------------
WDir2900320350405011013015031030026030
WSpd7 3 10 9 9 8 14 7 4 7 6 8 7
WGst15 -- -- -- -- -- 23 -- -- -- 17 -- --
Raw hourly METARs
KDEN 082153Z 29007G15KT 10SM FEW090 SCT120 36/M02 A2991 RMK AO2 SLP030 T03611022
KDEN 082253Z VRB03KT 10SM FEW120 SCT150 BKN200 35/M03 A2990 RMK AO2 SLP037 T03501028
KDEN 082353Z 32010KT 10SM FEW120 BKN160 BKN220 34/M04 A2990 RMK AO2 SLP033 T03441039 10367 20317 56007
KDEN 090053Z 35009KT 10SM BKN160 BKN220 34/M03 A2991 RMK AO2 SLP031 T03391028
KDEN 090153Z 04009KT 10SM BKN160 BKN220 29/M02 A2991 RMK AO2 SLP038 T02891022
KDEN 090253Z 05008KT 10SM SCT160 BKN200 27/03 A2994 RMK AO2 SLP044 T02720033 53009
KDEN 090359Z 11014G23KT 10SM FEW130 BKN160 27/04 A2996 RMK AO2 WSHFT 0340 T02670039
KDEN 090453Z 13007KT 10SM FEW120 BKN150 27/M01 A2997 RMK AO2 WSHFT 0340 SLP049 T02721006
KDEN 090553Z 15004KT 10SM SCT140 BKN180 24/02 A2998 RMK AO2 SLP049 T02440017 10344 20239 51012
KDEN 090653Z 31007KT 10SM SCT140 BKN190 24/05 A2997 RMK AO2 SLP048 T02390050 403670133
KDEN 090753Z 30006G17KT 10SM BKN160 23/04 A3000 RMK AO2 SLP056 T02280044
KDEN 090853Z 26008KT 10SM SCT160 21/04 A3000 RMK AO2 SLP058 T02060044 53006
KDEN 090953Z 03007KT 10SM SCT160 18/03 A3003 RMK AO2 SLP074 T01780033



Page loaded:  10:37 UTC  |   03:37 AM Pacific  |   04:37 AM Mountain  |   05:37 AM Central  |   06:37 AM Eastern

 

ADVISORIES

FORECASTS

FORECASTS

OBSERVATIONS

USER TOOLS

ABOUT US